Time;durP1;ratioP1;P1;durP2;ratioP2;P2;SDS_P1;SDS_P2;PMS_P1;PMS_P2;Temp;Humidity;BMP_temperature;BMP_pressure;BME280_temperature;BME280_humidity;BME280_pressure;Samples;Min_cycle;Max_cycle;Signal;HPM_P1;HPM_P2
2021/06/24 00:00:52;;;;;;;6.50;2.60;;;;;;;19.86;69.47;96824.16;5052166;28;20453;-65
2021/06/24 00:03:18;;;;;;;3.03;2.47;;;;;;;19.94;69.24;96815.91;5051760;28;20475;-65
2021/06/24 00:05:44;;;;;;;3.13;2.93;;;;;;;19.99;69.10;96816.06;5043220;28;20431;-65
2021/06/24 00:08:10;;;;;;;3.40;3.00;;;;;;;19.75;70.29;96813.22;5047920;28;20445;-65
2021/06/24 00:10:39;;;;;;;4.07;3.67;;;;;;;19.91;69.92;96819.81;5051333;28;20437;-64
2021/06/24 00:13:04;;;;;;;4.90;4.00;;;;;;;19.47;71.93;96809.19;5051968;28;20834;-65
2021/06/24 00:15:30;;;;;;;5.30;4.80;;;;;;;19.46;72.56;96812.88;5049264;28;20441;-66
2021/06/24 00:17:56;;;;;;;5.03;4.53;;;;;;;19.75;71.45;96810.56;5051830;28;20288;-65
2021/06/24 00:20:22;;;;;;;5.10;4.70;;;;;;;19.52;72.62;96805.88;5051581;28;21023;-65
2021/06/24 00:22:47;;;;;;;6.73;5.07;;;;;;;19.82;71.94;96799.03;5049265;28;20183;-65
2021/06/24 00:25:14;;;;;;;5.63;5.23;;;;;;;19.69;72.56;96811.44;5051556;28;20186;-66
2021/06/24 00:27:40;;;;;;;7.10;5.00;;;;;;;19.72;72.48;96807.53;5049486;28;20210;-65
2021/06/24 00:30:07;;;;;;;6.00;5.47;;;;;;;19.88;72.01;96808.81;5051274;28;20417;-65
2021/06/24 00:32:32;;;;;;;8.60;6.77;;;;;;;19.70;72.54;96807.75;5050920;28;20202;-66
2021/06/24 00:35:02;;;;;;;6.30;5.70;;;;;;;19.75;72.94;96805.25;5052532;28;20503;-65
2021/06/24 00:37:28;;;;;;;7.30;6.67;;;;;;;19.78;72.66;96802.13;5050481;28;20642;-65
2021/06/24 00:39:54;;;;;;;8.70;6.73;;;;;;;19.74;72.83;96803.63;5051161;28;20468;-65
2021/06/24 00:42:22;;;;;;;9.57;6.73;;;;;;;19.73;73.68;96812.63;5054061;28;20472;-65
2021/06/24 00:44:47;;;;;;;8.13;7.03;;;;;;;19.63;73.61;96812.31;5050570;28;20445;-66
2021/06/24 00:47:13;;;;;;;6.90;6.30;;;;;;;19.19;76.02;96821.06;5052126;28;20785;-66
2021/06/24 00:49:39;;;;;;;6.40;5.90;;;;;;;19.34;75.34;96814.63;5054074;28;20214;-65
2021/06/24 00:52:04;;;;;;;6.20;5.60;;;;;;;19.56;73.63;96809.72;5058589;28;20238;-65
2021/06/24 00:54:30;;;;;;;6.10;5.00;;;;;;;19.53;73.50;96812.03;5057073;28;20179;-65
2021/06/24 00:56:55;;;;;;;6.30;5.20;;;;;;;19.24;74.29;96817.75;5050746;28;20232;-65
2021/06/24 00:59:21;;;;;;;5.50;5.00;;;;;;;19.66;72.75;96822.50;5043360;28;20205;-65
2021/06/24 01:01:47;;;;;;;5.20;4.70;;;;;;;19.82;72.15;96821.13;5051527;28;20203;-65
2021/06/24 01:04:15;;;;;;;4.97;4.47;;;;;;;19.78;71.95;96810.09;5049650;28;20540;-65
2021/06/24 01:06:40;;;;;;;4.13;3.83;;;;;;;19.49;72.10;96807.13;5037044;28;20203;-64
2021/06/24 01:09:06;;;;;;;3.87;3.57;;;;;;;19.38;73.33;96812.34;5051016;28;20460;-65
2021/06/24 01:11:31;;;;;;;5.20;3.60;;;;;;;19.61;72.50;96803.75;5050868;28;20191;-64
2021/06/24 01:13:57;;;;;;;3.80;3.23;;;;;;;19.73;71.99;96807.31;5051303;28;20638;-66
2021/06/24 01:16:22;;;;;;;3.90;3.60;;;;;;;19.63;71.96;96799.84;5051427;28;20241;-65
2021/06/24 01:18:48;;;;;;;3.53;3.23;;;;;;;19.67;71.43;96807.38;5049892;28;20669;-65
2021/06/24 01:21:14;;;;;;;6.20;3.40;;;;;;;19.52;71.78;96810.38;5048037;28;20220;-65
2021/06/24 01:23:41;;;;;;;4.20;2.63;;;;;;;19.24;72.44;96812.44;5050843;28;20485;-67
2021/06/24 01:26:08;;;;;;;3.60;3.40;;;;;;;19.37;72.18;96811.53;5050630;28;20183;-66
2021/06/24 01:28:33;;;;;;;3.63;2.60;;;;;;;19.11;71.68;96810.72;5046941;28;20461;-66
2021/06/24 01:30:59;;;;;;;2.83;2.60;;;;;;;19.36;71.20;96815.22;5047012;28;20437;-65
2021/06/24 01:33:25;;;;;;;2.60;2.33;;;;;;;19.36;70.28;96806.44;5037234;28;20214;-66
2021/06/24 01:36:02;;;;;;;2.77;2.53;;;;;;;19.58;69.45;96809.50;5043975;28;20276;-66
2021/06/24 01:38:28;;;;;;;3.13;2.57;;;;;;;19.72;68.86;96807.53;5021213;28;20452;-66
2021/06/24 01:40:54;;;;;;;2.70;2.50;;;;;;;19.84;68.97;96810.25;5054471;28;20465;-66
2021/06/24 01:43:20;;;;;;;2.60;2.43;;;;;;;20.01;68.89;96813.16;5036169;28;20194;-66
2021/06/24 01:45:47;;;;;;;2.50;2.30;;;;;;;19.98;68.71;96813.59;5052925;28;20186;-66
2021/06/24 01:48:13;;;;;;;4.73;2.40;;;;;;;20.00;68.38;96806.22;5053805;28;20468;-66
2021/06/24 01:50:39;;;;;;;4.80;2.37;;;;;;;20.10;68.67;96802.00;5053081;28;20860;-65
2021/06/24 01:53:05;;;;;;;2.50;2.30;;;;;;;20.09;68.64;96799.59;5054090;28;20183;-64
2021/06/24 01:55:34;;;;;;;3.77;2.40;;;;;;;20.14;68.39;96799.72;5052991;28;20749;-65
2021/06/24 01:58:05;;;;;;;3.33;2.57;;;;;;;20.14;68.41;96796.25;5053852;28;20175;-65
2021/06/24 02:00:31;;;;;;;2.37;2.17;;;;;;;20.16;68.00;96802.16;5054195;28;20522;-66
2021/06/24 02:02:57;;;;;;;2.63;2.53;;;;;;;20.13;67.90;96799.94;5054297;28;20502;-65
2021/06/24 02:05:23;;;;;;;3.30;2.60;;;;;;;20.20;67.63;96798.00;5047536;28;20445;-66
2021/06/24 02:07:49;;;;;;;2.53;2.43;;;;;;;20.20;68.23;96787.38;5044154;28;20414;-65
2021/06/24 02:10:16;;;;;;;2.60;2.50;;;;;;;20.16;68.97;96779.03;5052533;28;20503;-64
2021/06/24 02:12:42;;;;;;;2.40;2.30;;;;;;;20.10;69.88;96785.22;5054603;28;20421;-65
2021/06/24 02:15:10;;;;;;;2.87;2.67;;;;;;;20.04;70.19;96781.63;5052566;28;20468;-65
2021/06/24 02:17:36;;;;;;;3.27;2.90;;;;;;;20.08;69.77;96777.47;5052930;28;20429;-66
2021/06/24 02:20:07;;;;;;;5.23;3.77;;;;;;;19.95;70.84;96772.31;5052472;28;20413;-64
2021/06/24 02:22:33;;;;;;;4.07;3.53;;;;;;;19.89;71.36;96775.88;5051216;28;20515;-65
2021/06/24 02:24:59;;;;;;;3.77;3.40;;;;;;;19.98;70.55;96765.75;5051748;28;20470;-65
2021/06/24 02:27:24;;;;;;;3.10;2.87;;;;;;;20.02;69.99;96767.75;5037660;28;20266;-64
2021/06/24 02:29:50;;;;;;;3.17;2.97;;;;;;;20.04;70.24;96767.53;5052799;28;20171;-64
2021/06/24 02:32:16;;;;;;;2.60;2.40;;;;;;;20.04;69.52;96765.66;5053598;28;20190;-65
2021/06/24 02:34:42;;;;;;;2.80;2.53;;;;;;;20.03;69.56;96764.06;5053359;28;20182;-64
2021/06/24 02:37:08;;;;;;;3.13;2.83;;;;;;;20.02;69.10;96766.91;5039888;28;20301;-64
2021/06/24 02:39:33;;;;;;;3.00;2.80;;;;;;;20.00;68.79;96764.50;5053434;28;20952;-66
2021/06/24 02:41:59;;;;;;;2.50;2.30;;;;;;;20.02;68.68;96761.59;5053686;28;20693;-65
2021/06/24 02:44:26;;;;;;;3.57;2.50;;;;;;;20.01;68.60;96759.97;5035706;28;20183;-64
2021/06/24 02:46:51;;;;;;;2.83;2.63;;;;;;;19.97;68.83;96756.97;5055767;28;20182;-64
2021/06/24 02:49:17;;;;;;;2.50;2.37;;;;;;;19.93;68.76;96750.44;5057927;28;20425;-64
2021/06/24 02:51:42;;;;;;;4.60;2.50;;;;;;;19.93;69.05;96758.44;5058085;28;20197;-64
2021/06/24 02:54:08;;;;;;;5.67;3.13;;;;;;;19.85;69.13;96758.72;5059319;28;20689;-64
2021/06/24 02:56:38;;;;;;;3.43;2.93;;;;;;;19.82;69.50;96762.63;5059943;28;20175;-64
2021/06/24 02:59:04;;;;;;;4.27;2.80;;;;;;;19.75;69.74;96754.75;5051325;28;20330;-66
2021/06/24 03:01:29;;;;;;;4.53;3.50;;;;;;;19.82;69.40;96751.19;5049897;28;20469;-66
2021/06/24 03:03:55;;;;;;;2.80;2.60;;;;;;;19.80;69.09;96754.88;5056994;28;20324;-66
2021/06/24 03:06:21;;;;;;;3.70;2.63;;;;;;;19.71;68.84;96760.72;5051295;28;20658;-65
2021/06/24 03:08:47;;;;;;;2.53;2.43;;;;;;;19.67;68.95;96754.22;5054881;28;20179;-66
2021/06/24 03:11:14;;;;;;;3.70;2.70;;;;;;;19.63;68.97;96752.00;5053959;28;20444;-65
2021/06/24 03:13:39;;;;;;;2.50;2.30;;;;;;;19.57;68.74;96752.88;5053439;28;20183;-66
2021/06/24 03:16:05;;;;;;;3.10;2.90;;;;;;;19.45;69.20;96744.81;5053720;28;20483;-65
2021/06/24 03:18:31;;;;;;;5.43;3.00;;;;;;;19.45;69.29;96739.50;5053682;28;20187;-65
2021/06/24 03:20:57;;;;;;;2.97;2.70;;;;;;;19.53;68.99;96748.25;5050690;28;20211;-65
2021/06/24 03:23:22;;;;;;;2.70;2.50;;;;;;;19.60;69.00;96743.66;5050823;28;20421;-65
2021/06/24 03:25:48;;;;;;;4.00;2.70;;;;;;;19.68;68.93;96740.69;5053359;28;20630;-66
2021/06/24 03:28:14;;;;;;;3.13;2.90;;;;;;;19.73;68.84;96735.53;5053288;28;20195;-66
2021/06/24 03:30:41;;;;;;;8.70;2.70;;;;;;;19.69;68.95;96730.88;5052972;28;20607;-65
2021/06/24 03:33:07;;;;;;;3.67;2.73;;;;;;;19.74;68.81;96723.88;5052921;28;20190;-66
2021/06/24 03:35:33;;;;;;;2.67;2.47;;;;;;;19.75;68.98;96735.31;5032409;28;20470;-66
2021/06/24 03:37:58;;;;;;;2.73;2.50;;;;;;;19.63;68.95;96722.75;5045585;28;20920;-66
2021/06/24 03:40:24;;;;;;;2.87;2.67;;;;;;;19.67;68.73;96727.63;5052630;28;20219;-67
2021/06/24 03:42:51;;;;;;;2.80;2.60;;;;;;;19.76;68.52;96720.97;5046494;28;20187;-66
2021/06/24 03:45:17;;;;;;;3.47;3.17;;;;;;;19.83;68.49;96723.56;5050289;28;20179;-65
2021/06/24 03:47:43;;;;;;;3.10;2.80;;;;;;;19.78;68.35;96722.38;5052573;28;20432;-66
2021/06/24 03:50:10;;;;;;;3.07;2.87;;;;;;;19.65;68.75;96719.91;5052304;28;20203;-65
2021/06/24 03:52:37;;;;;;;7.83;2.70;;;;;;;19.69;68.99;96722.91;5037775;28;20188;-65
2021/06/24 03:55:03;;;;;;;3.90;2.40;;;;;;;19.80;68.58;96722.97;5048155;28;20512;-65
2021/06/24 03:57:29;;;;;;;3.67;2.73;;;;;;;19.78;68.33;96725.03;5050786;28;20921;-65
2021/06/24 03:59:54;;;;;;;3.63;2.90;;;;;;;19.35;69.79;96725.94;5052043;28;20543;-64
2021/06/24 04:02:21;;;;;;;3.03;2.83;;;;;;;19.44;69.97;96727.25;5050035;28;20642;-66
2021/06/24 04:04:47;;;;;;;5.37;3.00;;;;;;;19.54;69.53;96728.59;5051303;28;20598;-65
2021/06/24 04:07:12;;;;;;;2.70;2.57;;;;;;;19.69;68.78;96723.72;5051903;28;20421;-64
2021/06/24 04:09:38;;;;;;;3.97;3.10;;;;;;;19.83;68.66;96729.69;5052003;28;20183;-65
2021/06/24 04:12:04;;;;;;;4.33;3.77;;;;;;;19.73;68.72;96724.06;5050382;28;20398;-65
2021/06/24 04:14:30;;;;;;;4.53;3.10;;;;;;;19.15;71.29;96732.22;5051670;28;20516;-65
2021/06/24 04:16:55;;;;;;;6.10;3.30;;;;;;;19.09;72.09;96727.00;5051905;28;20191;-65
2021/06/24 04:19:21;;;;;;;3.50;2.80;;;;;;;19.34;70.41;96725.09;5051782;28;20179;-65
2021/06/24 04:21:46;;;;;;;3.50;3.13;;;;;;;19.38;70.86;96730.81;5047215;28;20230;-65
2021/06/24 04:24:12;;;;;;;4.90;4.40;;;;;;;19.02;72.12;96732.38;5041719;28;20191;-65
2021/06/24 04:26:38;;;;;;;5.13;4.00;;;;;;;19.30;70.98;96733.72;5052476;28;20312;-66
2021/06/24 04:29:04;;;;;;;6.77;3.73;;;;;;;19.26;71.63;96737.88;5053180;28;20181;-64
2021/06/24 04:31:29;;;;;;;4.53;2.90;;;;;;;19.03;71.79;96737.47;5052988;28;20236;-65
2021/06/24 04:33:56;;;;;;;3.53;2.93;;;;;;;19.13;71.86;96736.97;5051814;28;20320;-65
2021/06/24 04:36:22;;;;;;;3.47;3.17;;;;;;;19.18;71.60;96737.13;5051542;28;20650;-65
2021/06/24 04:38:48;;;;;;;3.40;3.10;;;;;;;19.39;71.22;96736.91;5051313;28;20486;-66
2021/06/24 04:41:13;;;;;;;3.60;3.30;;;;;;;19.23;72.13;96730.34;5051614;28;20214;-66
2021/06/24 04:43:39;;;;;;;4.30;3.90;;;;;;;19.11;72.66;96722.28;5055410;28;20621;-67
2021/06/24 04:46:04;;;;;;;3.50;3.20;;;;;;;19.15;72.49;96723.47;5052924;28;20175;-65
2021/06/24 04:48:30;;;;;;;3.50;3.20;;;;;;;18.95;73.50;96721.00;5052578;28;20622;-65
2021/06/24 04:50:56;;;;;;;3.50;3.20;;;;;;;19.21;72.30;96714.63;5052471;28;20191;-65
2021/06/24 04:53:21;;;;;;;4.23;3.83;;;;;;;19.06;73.13;96711.50;5040952;28;20179;-66
2021/06/24 04:55:47;;;;;;;4.20;3.60;;;;;;;19.12;73.23;96716.75;5051444;28;20185;-65
2021/06/24 04:58:13;;;;;;;6.03;3.27;;;;;;;19.35;71.88;96720.63;5050097;28;20620;-65
2021/06/24 05:00:38;;;;;;;3.90;3.40;;;;;;;19.54;70.85;96715.28;5050347;28;20206;-65
2021/06/24 05:03:04;;;;;;;6.60;3.30;;;;;;;19.49;71.18;96716.78;5050787;28;20194;-65
2021/06/24 05:05:31;;;;;;;4.60;2.80;;;;;;;19.26;71.44;96706.00;5051397;28;20171;-65
2021/06/24 05:07:57;;;;;;;9.50;3.33;;;;;;;19.39;71.43;96708.53;5054861;28;20425;-66
2021/06/24 05:10:23;;;;;;;3.67;3.20;;;;;;;19.60;70.49;96701.13;5056136;28;20554;-64
2021/06/24 05:12:48;;;;;;;4.83;3.30;;;;;;;19.62;70.54;96699.06;5055882;28;20426;-67
2021/06/24 05:15:15;;;;;;;5.53;3.50;;;;;;;19.60;69.90;96701.13;5054427;28;20187;-66
2021/06/24 05:17:40;;;;;;;4.80;3.20;;;;;;;19.88;69.85;96700.59;5055977;28;20185;-65
2021/06/24 05:20:07;;;;;;;4.63;3.30;;;;;;;19.87;69.24;96695.53;5053610;28;20422;-65
2021/06/24 05:22:33;;;;;;;2.90;2.70;;;;;;;20.14;68.12;96701.28;5050115;28;20187;-66
2021/06/24 05:24:59;;;;;;;3.27;3.07;;;;;;;20.14;67.73;96703.16;5046424;28;20436;-65
2021/06/24 05:27:25;;;;;;;3.60;3.10;;;;;;;20.33;67.66;96704.72;5038728;28;20521;-65
2021/06/24 05:29:51;;;;;;;3.27;2.97;;;;;;;20.05;68.61;96703.44;5054747;28;20504;-66
2021/06/24 05:32:16;;;;;;;4.13;3.73;;;;;;;20.19;67.95;96696.13;5055148;28;20199;-66
2021/06/24 05:34:42;;;;;;;6.43;3.23;;;;;;;19.86;70.05;96701.84;5049735;28;20663;-65
2021/06/24 05:37:08;;;;;;;4.20;3.50;;;;;;;20.16;69.09;96701.09;5052579;28;20175;-65
2021/06/24 05:39:33;;;;;;;5.10;4.20;;;;;;;20.11;68.87;96701.75;5054274;28;20233;-69
2021/06/24 05:41:59;;;;;;;5.47;3.53;;;;;;;20.20;69.00;96704.91;5055432;28;20697;-65
2021/06/24 05:44:26;;;;;;;8.90;4.70;;;;;;;20.56;67.32;96703.97;5038231;28;20203;-66
2021/06/24 05:46:55;;;;;;;5.53;3.87;;;;;;;20.67;66.90;96698.88;5055269;28;20178;-65
2021/06/24 05:49:21;;;;;;;6.70;4.53;;;;;;;20.56;67.57;96709.28;5053398;28;20417;-65
2021/06/24 05:51:46;;;;;;;7.80;3.60;;;;;;;20.90;66.51;96708.78;5054960;28;20433;-64
2021/06/24 05:54:13;;;;;;;8.67;4.93;;;;;;;21.20;65.27;96702.53;5038284;28;20839;-65
2021/06/24 05:56:40;;;;;;;10.27;6.57;;;;;;;20.82;65.87;96717.09;5051743;28;20198;-66
2021/06/24 05:59:05;;;;;;;6.00;4.30;;;;;;;20.82;65.66;96717.09;5054400;28;20425;-66
2021/06/24 06:01:31;;;;;;;15.27;6.00;;;;;;;20.85;66.41;96722.81;5050905;28;20457;-64
2021/06/24 06:03:57;;;;;;;38.70;12.17;;;;;;;20.56;66.75;96709.28;5046884;28;20175;-64
2021/06/24 06:06:22;;;;;;;9.87;5.83;;;;;;;20.25;68.40;96721.81;5054966;28;20171;-65
2021/06/24 06:08:48;;;;;;;6.43;4.77;;;;;;;20.70;67.59;96720.53;5041714;28;20308;-65
2021/06/24 06:11:13;;;;;;;29.53;9.57;;;;;;;20.76;65.86;96724.16;5050299;28;20260;-65
2021/06/24 06:13:39;;;;;;;5.13;4.57;;;;;;;20.54;66.60;96731.88;5053277;28;20186;-64
2021/06/24 06:16:05;;;;;;;4.17;3.87;;;;;;;20.71;65.69;96737.34;5053699;28;20244;-64
2021/06/24 06:18:31;;;;;;;4.90;4.30;;;;;;;20.76;65.37;96729.47;5053241;28;20272;-66
2021/06/24 06:20:57;;;;;;;4.80;3.70;;;;;;;20.92;64.72;96732.53;5050717;28;20207;-65
2021/06/24 06:23:25;;;;;;;4.10;3.80;;;;;;;20.56;66.69;96737.75;5053513;28;20179;-65
2021/06/24 06:25:51;;;;;;;4.37;3.90;;;;;;;20.81;65.73;96731.47;5054158;28;20426;-65
2021/06/24 06:28:18;;;;;;;3.67;3.37;;;;;;;20.86;65.11;96737.72;5053945;28;20437;-65
2021/06/24 06:30:46;;;;;;;5.00;3.90;;;;;;;20.45;65.90;96735.88;5052744;28;20489;-64
2021/06/24 06:33:12;;;;;;;4.50;3.53;;;;;;;20.85;65.21;96728.13;5045393;28;20540;-64
2021/06/24 06:35:38;;;;;;;3.67;3.30;;;;;;;21.02;65.08;96728.25;5053785;28;20422;-64
2021/06/24 06:38:04;;;;;;;3.97;3.67;;;;;;;21.78;62.34;96721.38;5036678;28;20200;-65
2021/06/24 06:40:29;;;;;;;4.57;3.43;;;;;;;21.34;63.30;96724.44;5053450;28;20453;-66
2021/06/24 06:42:55;;;;;;;3.10;2.90;;;;;;;22.07;61.73;96726.72;5036091;28;20417;-65
2021/06/24 06:45:22;;;;;;;3.50;3.20;;;;;;;22.15;61.20;96729.00;5052347;28;20207;-64
2021/06/24 06:47:48;;;;;;;5.10;3.57;;;;;;;22.09;61.51;96729.97;5052598;28;20266;-66
2021/06/24 06:50:14;;;;;;;3.63;3.33;;;;;;;21.92;60.99;96729.91;5051811;28;20578;-65
2021/06/24 06:52:40;;;;;;;4.30;3.20;;;;;;;21.84;61.43;96744.41;5053335;28;20442;-66
2021/06/24 06:55:06;;;;;;;3.50;3.20;;;;;;;21.67;62.17;96733.69;5053048;28;20444;-64
2021/06/24 06:57:31;;;;;;;3.93;3.53;;;;;;;21.32;63.61;96732.63;5052932;28;20175;-66
2021/06/24 06:59:57;;;;;;;4.90;3.90;;;;;;;21.37;64.59;96733.81;5053448;28;20665;-65
2021/06/24 07:02:22;;;;;;;7.27;3.90;;;;;;;20.75;66.21;96733.19;5046676;28;20293;-64
2021/06/24 07:04:49;;;;;;;4.40;4.00;;;;;;;20.78;66.05;96730.06;5053013;28;20175;-65
2021/06/24 07:07:14;;;;;;;4.47;4.10;;;;;;;20.76;66.05;96726.81;5051958;28;20187;-66
2021/06/24 07:09:41;;;;;;;4.20;3.90;;;;;;;20.80;66.04;96737.81;5051847;28;20417;-65
2021/06/24 07:12:08;;;;;;;3.90;3.60;;;;;;;21.07;64.81;96729.41;5051083;28;20202;-64
2021/06/24 07:14:33;;;;;;;3.87;3.60;;;;;;;20.98;65.24;96729.75;5052566;28;20410;-64
2021/06/24 07:16:59;;;;;;;4.80;4.23;;;;;;;20.80;65.81;96733.31;5054253;28;20940;-66
2021/06/24 07:19:25;;;;;;;4.13;3.73;;;;;;;20.68;65.45;96727.94;5038383;28;20245;-65
2021/06/24 07:21:50;;;;;;;3.43;3.23;;;;;;;20.83;65.11;96729.38;5040652;28;20210;-64
2021/06/24 07:24:18;;;;;;;4.00;3.70;;;;;;;20.70;65.24;96735.72;5050294;28;20178;-64
2021/06/24 07:26:43;;;;;;;3.50;3.20;;;;;;;21.18;63.89;96728.59;5050886;28;20175;-65
2021/06/24 07:29:09;;;;;;;3.60;3.03;;;;;;;21.58;61.37;96722.53;5051356;28;20428;-65
2021/06/24 07:31:34;;;;;;;4.13;2.70;;;;;;;22.45;58.44;96733.31;5041574;28;20553;-64
2021/06/24 07:34:00;;;;;;;4.70;3.03;;;;;;;22.76;57.81;96728.50;5045665;28;20190;-64
2021/06/24 07:36:26;;;;;;;3.90;3.03;;;;;;;23.30;56.25;96743.25;5053823;28;20179;-64
2021/06/24 07:38:51;;;;;;;2.80;2.60;;;;;;;23.58;55.10;96730.75;5051108;28;20549;-64
2021/06/24 07:41:19;;;;;;;2.87;2.67;;;;;;;24.12;53.97;96730.13;5050527;28;20272;-64
2021/06/24 07:43:44;;;;;;;2.97;2.77;;;;;;;24.73;52.06;96728.28;5050093;28;20205;-65
2021/06/24 07:46:11;;;;;;;2.97;2.77;;;;;;;24.86;51.20;96727.88;5051666;28;20429;-65
2021/06/24 07:48:37;;;;;;;3.27;2.90;;;;;;;24.90;51.41;96738.88;5052068;28;20309;-64
2021/06/24 07:51:02;;;;;;;2.27;2.17;;;;;;;25.34;50.14;96741.34;5052034;28;20477;-65
2021/06/24 07:53:28;;;;;;;2.90;2.70;;;;;;;25.48;49.56;96736.34;5052049;28;20175;-65
2021/06/24 07:55:53;;;;;;;3.13;2.93;;;;;;;24.94;51.36;96734.63;5051920;28;20247;-65
2021/06/24 07:58:19;;;;;;;3.40;2.93;;;;;;;24.13;53.82;96737.06;5052171;28;20187;-65
2021/06/24 08:00:44;;;;;;;3.00;2.80;;;;;;;24.38;53.50;96738.41;5040247;28;20215;-65
2021/06/24 08:03:10;;;;;;;2.63;2.47;;;;;;;24.84;53.03;96738.84;5040485;28;20274;-65
2021/06/24 08:05:35;;;;;;;3.17;2.97;;;;;;;25.40;51.29;96734.13;5051292;28;20232;-64
2021/06/24 08:08:01;;;;;;;3.10;2.80;;;;;;;25.67;49.96;96743.97;5037283;28;20654;-65
2021/06/24 08:10:27;;;;;;;4.17;2.53;;;;;;;26.15;48.59;96739.34;5037475;28;20205;-65
2021/06/24 08:12:52;;;;;;;2.37;2.17;;;;;;;26.12;47.78;96744.44;5046270;28;20187;-65
2021/06/24 08:15:20;;;;;;;2.53;2.27;;;;;;;24.95;48.93;96750.44;5053873;28;20213;-64
2021/06/24 08:17:46;;;;;;;2.90;2.30;;;;;;;24.91;47.80;96753.88;5041080;28;20194;-64
2021/06/24 08:20:13;;;;;;;3.90;1.97;;;;;;;25.80;46.81;96754.22;5052000;28;20912;-64
2021/06/24 08:22:39;;;;;;;4.10;2.47;;;;;;;25.80;47.81;96753.41;5050394;28;20246;-64
2021/06/24 08:25:06;;;;;;;3.40;3.10;;;;;;;26.46;45.40;96755.53;5057480;28;20878;-65
2021/06/24 08:27:32;;;;;;;2.80;2.60;;;;;;;26.65;44.86;96763.06;5048119;28;20209;-65
2021/06/24 08:29:58;;;;;;;2.10;2.00;;;;;;;27.31;43.36;96753.41;5056943;28;20421;-66
2021/06/24 08:32:24;;;;;;;4.20;2.27;;;;;;;26.66;45.79;96753.94;5046203;28;20947;-65
2021/06/24 08:34:50;;;;;;;3.03;2.50;;;;;;;25.71;47.99;96761.97;5052542;28;20278;-65
2021/06/24 08:37:16;;;;;;;2.10;2.00;;;;;;;25.15;48.92;96765.06;5052456;28;20429;-65
2021/06/24 08:39:43;;;;;;;2.43;2.10;;;;;;;25.19;48.29;96774.22;5049240;28;20445;-65
2021/06/24 08:42:09;;;;;;;4.70;2.80;;;;;;;25.58;47.53;96779.31;5034380;28;20697;-64
2021/06/24 08:44:35;;;;;;;3.20;2.50;;;;;;;25.00;49.36;96777.28;5052536;28;20848;-65
2021/06/24 08:47:02;;;;;;;2.63;2.20;;;;;;;24.66;50.78;96777.50;5051768;28;20434;-65
2021/06/24 08:49:28;;;;;;;6.10;2.40;;;;;;;24.80;50.47;96777.13;5051798;28;20179;-65
2021/06/24 08:51:55;;;;;;;6.63;2.90;;;;;;;25.17;49.27;96776.34;5051973;28;20460;-67
2021/06/24 08:54:21;;;;;;;2.33;2.23;;;;;;;25.56;49.16;96772.59;5051400;28;20425;-65
2021/06/24 08:56:47;;;;;;;3.63;3.30;;;;;;;25.77;48.11;96774.31;5048313;28;20933;-63
2021/06/24 08:59:13;;;;;;;3.13;2.20;;;;;;;26.33;45.98;96777.53;5051457;28;20433;-65
2021/06/24 09:01:53;;;;;;;3.50;2.30;;;;;;;26.60;45.50;96776.47;5050618;28;20484;-65
2021/06/24 09:04:21;;;;;;;4.90;2.60;;;;;;;26.08;44.58;96776.34;5049843;28;20193;-64
2021/06/24 09:06:47;;;;;;;2.73;2.30;;;;;;;26.53;43.36;96768.69;5049973;28;20490;-64
2021/06/24 09:09:36;;;;;;;1.80;1.70;;;;;;;26.40;43.69;96771.91;5051352;28;20430;-66
2021/06/24 09:12:07;;;;;;;2.27;2.07;;;;;;;26.03;45.49;96776.31;5050643;28;20452;-66
2021/06/24 09:14:41;;;;;;;5.53;2.00;;;;;;;25.98;46.17;96776.28;5047922;28;20425;-64
2021/06/24 09:17:07;;;;;;;7.70;2.07;;;;;;;25.99;45.92;96777.91;5050783;28;20426;-67
2021/06/24 09:19:33;;;;;;;4.93;2.20;;;;;;;25.99;46.24;96775.22;5042030;28;20482;-66
2021/06/24 09:22:01;;;;;;;2.50;2.30;;;;;;;25.44;47.47;96789.69;5041328;28;20774;-63
2021/06/24 09:24:28;;;;;;;2.50;2.30;;;;;;;25.43;48.04;96789.97;5049338;28;20187;-65
2021/06/24 09:26:56;;;;;;;2.60;2.40;;;;;;;25.39;48.07;96789.63;5047363;28;20465;-66
2021/06/24 09:29:22;;;;;;;2.83;2.50;;;;;;;25.71;47.39;96787.97;5049805;28;20432;-65
2021/06/24 09:31:52;;;;;;;2.40;2.30;;;;;;;25.90;47.15;96791.84;5045186;28;20719;-64
2021/06/24 09:34:18;;;;;;;2.10;2.00;;;;;;;26.25;46.01;96788.75;5046680;28;20554;-65
2021/06/24 09:36:48;;;;;;;2.13;1.90;;;;;;;26.83;45.30;96791.34;5038829;28;20463;-65
2021/06/24 09:39:34;;;;;;;2.43;2.30;;;;;;;27.03;44.57;96784.38;5048276;28;20445;-64
2021/06/24 09:42:02;;;;;;;2.30;2.10;;;;;;;27.36;43.01;96780.28;5034582;28;20461;-65
2021/06/24 09:44:29;;;;;;;3.40;2.20;;;;;;;27.27;43.59;96781.91;5034988;28;20421;-65
2021/06/24 09:46:55;;;;;;;2.00;1.90;;;;;;;26.98;44.76;96782.47;5050404;28;20429;-64
2021/06/24 09:49:32;;;;;;;2.30;2.10;;;;;;;26.78;44.67;96777.84;5050229;28;20483;-63
2021/06/24 09:52:00;;;;;;;3.60;2.17;;;;;;;26.68;45.01;96781.34;5016557;28;20449;-64
2021/06/24 09:54:42;;;;;;;4.03;2.40;;;;;;;27.27;43.21;96776.53;5053770;28;20500;-65
2021/06/24 09:57:08;;;;;;;2.23;2.03;;;;;;;27.55;42.68;96767.09;5054580;28;20417;-63
2021/06/24 09:59:35;;;;;;;2.07;1.70;;;;;;;27.96;41.89;96765.34;5054822;28;20951;-65
2021/06/24 10:02:13;;;;;;;1.67;1.57;;;;;;;27.82;40.49;96757.06;5047131;28;20723;-63
2021/06/24 10:04:42;;;;;;;5.43;2.27;;;;;;;27.90;40.94;96759.19;5054110;28;20421;-65
2021/06/24 10:07:11;;;;;;;2.50;2.30;;;;;;;27.74;42.23;96764.63;5052498;28;20417;-64
2021/06/24 10:09:40;;;;;;;1.57;1.47;;;;;;;27.34;40.84;96763.63;5053859;28;20764;-64
2021/06/24 10:12:14;;;;;;;2.47;2.00;;;;;;;27.26;42.30;96769.53;5055229;28;20449;-64
2021/06/24 10:14:40;;;;;;;3.40;2.10;;;;;;;27.12;43.23;96769.31;5055047;28;20436;-65
2021/06/24 10:17:07;;;;;;;6.37;2.10;;;;;;;26.71;44.36;96778.13;5053972;28;20651;-64
2021/06/24 10:19:42;;;;;;;5.03;2.70;;;;;;;26.72;45.62;96774.34;5054063;28;21074;-65
2021/06/24 10:22:17;;;;;;;2.60;2.40;;;;;;;26.35;46.11;96780.72;5050175;28;20778;-63
2021/06/24 10:24:53;;;;;;;3.03;2.30;;;;;;;26.43;43.91;96768.66;5034798;28;20433;-65
2021/06/24 10:27:20;;;;;;;3.10;2.00;;;;;;;26.30;44.71;96775.38;5051659;28;20440;-65
2021/06/24 10:29:47;;;;;;;3.63;2.23;;;;;;;26.73;44.14;96773.28;5052990;28;20432;-66
2021/06/24 10:32:22;;;;;;;1.70;1.60;;;;;;;27.02;42.75;96780.84;5050272;28;20454;-65
2021/06/24 10:34:49;;;;;;;3.83;2.00;;;;;;;26.77;43.63;96771.69;5053643;28;20429;-66
2021/06/24 10:37:21;;;;;;;2.20;2.10;;;;;;;27.16;43.07;96769.56;5035236;28;20456;-64
2021/06/24 10:39:47;;;;;;;2.00;1.90;;;;;;;26.64;43.03;96773.03;5052054;28;20499;-64
2021/06/24 10:42:17;;;;;;;2.17;1.50;;;;;;;26.93;42.74;96769.03;5053408;28;20461;-64
2021/06/24 10:44:42;;;;;;;2.17;1.97;;;;;;;26.36;44.35;96771.59;5052877;28;20358;-65
2021/06/24 10:47:09;;;;;;;2.27;2.13;;;;;;;26.47;44.33;96764.38;5053288;28;20434;-64
2021/06/24 10:49:35;;;;;;;1.67;1.57;;;;;;;26.27;44.32;96765.97;5053629;28;20190;-65
2021/06/24 10:52:18;;;;;;;3.77;2.17;;;;;;;26.83;43.12;96762.59;5035277;28;20797;-66
2021/06/24 10:54:44;;;;;;;5.20;1.80;;;;;;;27.22;41.96;96757.72;5053452;28;20175;-65
2021/06/24 10:57:30;;;;;;;3.07;2.60;;;;;;;27.38;41.41;96753.91;5052056;28;20501;-64
2021/06/24 10:59:57;;;;;;;5.20;2.77;;;;;;;27.63;41.48;96740.72;5052760;28;20187;-65
2021/06/24 11:02:23;;;;;;;2.07;1.87;;;;;;;28.28;40.76;96743.41;5044858;28;20975;-67
2021/06/24 11:04:49;;;;;;;1.70;1.40;;;;;;;28.14;39.69;96735.16;5035132;28;20429;-64
2021/06/24 11:07:30;;;;;;;2.70;1.70;;;;;;;28.26;39.83;96734.78;5053627;28;21113;-64
2021/06/24 11:10:15;;;;;;;3.00;1.40;;;;;;;28.13;39.62;96735.41;5052083;28;20219;-65
2021/06/24 11:13:09;;;;;;;1.70;1.37;;;;;;;27.72;38.91;96731.78;5051822;28;20425;-65
2021/06/24 11:15:48;;;;;;;1.63;1.53;;;;;;;27.84;38.86;96734.16;5052860;28;20436;-64
2021/06/24 11:18:32;;;;;;;1.80;1.70;;;;;;;27.20;39.34;96741.06;5035438;28;20700;-63
2021/06/24 11:21:00;;;;;;;2.30;2.07;;;;;;;27.26;39.73;96735.41;5048259;28;20483;-66
2021/06/24 11:23:38;;;;;;;5.10;1.30;;;;;;;27.90;38.52;96716.13;5048440;28;20948;-65
2021/06/24 11:26:09;;;;;;;2.27;1.60;;;;;;;28.71;36.65;96715.91;5048681;28;20512;-65
2021/06/24 11:31:16;;;;;;;1.30;1.20;;;;;;;29.06;36.34;96719.41;5052931;28;20472;-64
2021/06/24 11:33:53;;;;;;;1.57;1.47;;;;;;;29.07;35.57;96712.91;5046480;28;20484;-65
2021/06/24 11:36:20;;;;;;;1.80;1.70;;;;;;;29.69;35.72;96708.81;5052076;28;20428;-65